sensor_id;sensor_type;location;lat;lon;timestamp;temperature;humidity
5697;DHT22;2873;50.966;7.210;2023-01-25T00:01:54;3.60;99.90
5697;DHT22;2873;50.966;7.210;2023-01-25T00:04:21;3.50;99.90
5697;DHT22;2873;50.966;7.210;2023-01-25T00:06:47;3.50;99.90
5697;DHT22;2873;50.966;7.210;2023-01-25T00:09:13;3.60;99.90
5697;DHT22;2873;50.966;7.210;2023-01-25T00:11:38;3.60;99.90
5697;DHT22;2873;50.966;7.210;2023-01-25T00:14:05;3.60;99.90
5697;DHT22;2873;50.966;7.210;2023-01-25T00:16:31;3.60;99.90
5697;DHT22;2873;50.966;7.210;2023-01-25T00:18:56;3.70;99.90
5697;DHT22;2873;50.966;7.210;2023-01-25T00:21:24;3.60;99.90
5697;DHT22;2873;50.966;7.210;2023-01-25T00:23:51;3.60;99.90
5697;DHT22;2873;50.966;7.210;2023-01-25T00:26:17;3.50;99.90
5697;DHT22;2873;50.966;7.210;2023-01-25T00:28:47;3.50;99.90
5697;DHT22;2873;50.966;7.210;2023-01-25T00:31:20;3.50;99.90
5697;DHT22;2873;50.966;7.210;2023-01-25T00:33:55;3.50;99.90
5697;DHT22;2873;50.966;7.210;2023-01-25T00:38:53;3.50;99.90
5697;DHT22;2873;50.966;7.210;2023-01-25T00:41:19;3.50;99.90
5697;DHT22;2873;50.966;7.210;2023-01-25T00:43:45;3.60;99.90
5697;DHT22;2873;50.966;7.210;2023-01-25T00:46:14;3.50;99.90
5697;DHT22;2873;50.966;7.210;2023-01-25T00:48:40;3.40;99.90
5697;DHT22;2873;50.966;7.210;2023-01-25T00:51:06;3.50;99.90
5697;DHT22;2873;50.966;7.210;2023-01-25T00:53:32;3.50;99.90
5697;DHT22;2873;50.966;7.210;2023-01-25T00:55:58;3.40;99.90
5697;DHT22;2873;50.966;7.210;2023-01-25T00:58:23;3.50;99.90
5697;DHT22;2873;50.966;7.210;2023-01-25T01:00:50;3.60;99.90
5697;DHT22;2873;50.966;7.210;2023-01-25T01:03:16;3.60;99.90
5697;DHT22;2873;50.966;7.210;2023-01-25T01:05:41;3.50;99.90
5697;DHT22;2873;50.966;7.210;2023-01-25T01:08:07;3.50;99.90
5697;DHT22;2873;50.966;7.210;2023-01-25T01:10:32;3.60;99.90
5697;DHT22;2873;50.966;7.210;2023-01-25T01:12:58;3.60;99.90
5697;DHT22;2873;50.966;7.210;2023-01-25T01:15:23;3.40;99.90
5697;DHT22;2873;50.966;7.210;2023-01-25T01:17:49;3.50;99.90
5697;DHT22;2873;50.966;7.210;2023-01-25T01:20:15;3.50;99.90
5697;DHT22;2873;50.966;7.210;2023-01-25T01:22:40;3.60;99.90
5697;DHT22;2873;50.966;7.210;2023-01-25T01:25:06;3.60;99.90
5697;DHT22;2873;50.966;7.210;2023-01-25T01:27:32;3.60;99.90
5697;DHT22;2873;50.966;7.210;2023-01-25T01:29:57;3.30;99.90
5697;DHT22;2873;50.966;7.210;2023-01-25T01:32:23;3.50;99.90
5697;DHT22;2873;50.966;7.210;2023-01-25T01:34:48;3.50;99.90
5697;DHT22;2873;50.966;7.210;2023-01-25T01:37:14;3.60;99.90
5697;DHT22;2873;50.966;7.210;2023-01-25T01:39:40;3.50;99.90
5697;DHT22;2873;50.966;7.210;2023-01-25T01:42:05;3.50;99.90
5697;DHT22;2873;50.966;7.210;2023-01-25T01:44:51;3.50;99.90
5697;DHT22;2873;50.966;7.210;2023-01-25T01:49:58;3.40;99.90
5697;DHT22;2873;50.966;7.210;2023-01-25T01:52:33;3.20;99.90
5697;DHT22;2873;50.966;7.210;2023-01-25T01:55:09;3.30;99.90
5697;DHT22;2873;50.966;7.210;2023-01-25T01:57:41;3.30;99.90
5697;DHT22;2873;50.966;7.210;2023-01-25T02:00:12;3.10;99.90
5697;DHT22;2873;50.966;7.210;2023-01-25T02:02:39;3.10;99.90
5697;DHT22;2873;50.966;7.210;2023-01-25T02:05:08;3.20;99.90
5697;DHT22;2873;50.966;7.210;2023-01-25T02:07:37;3.10;99.90
5697;DHT22;2873;50.966;7.210;2023-01-25T02:10:08;2.90;99.90
5697;DHT22;2873;50.966;7.210;2023-01-25T02:12:36;3.00;99.90
5697;DHT22;2873;50.966;7.210;2023-01-25T02:15:02;2.90;99.90
5697;DHT22;2873;50.966;7.210;2023-01-25T02:17:33;3.00;99.90
5697;DHT22;2873;50.966;7.210;2023-01-25T02:22:55;2.90;99.90
5697;DHT22;2873;50.966;7.210;2023-01-25T02:25:24;2.90;99.90
5697;DHT22;2873;50.966;7.210;2023-01-25T02:27:58;2.80;99.90
5697;DHT22;2873;50.966;7.210;2023-01-25T02:30:24;2.90;99.90
5697;DHT22;2873;50.966;7.210;2023-01-25T02:32:50;2.80;99.90
5697;DHT22;2873;50.966;7.210;2023-01-25T02:35:21;2.80;99.90
5697;DHT22;2873;50.966;7.210;2023-01-25T02:37:48;2.90;99.90
5697;DHT22;2873;50.966;7.210;2023-01-25T02:40:13;2.90;99.90
5697;DHT22;2873;50.966;7.210;2023-01-25T02:42:43;2.80;99.90
5697;DHT22;2873;50.966;7.210;2023-01-25T02:45:13;2.90;99.90
5697;DHT22;2873;50.966;7.210;2023-01-25T02:47:40;2.90;99.90
5697;DHT22;2873;50.966;7.210;2023-01-25T02:50:06;3.00;99.90
5697;DHT22;2873;50.966;7.210;2023-01-25T02:52:31;3.00;99.90
5697;DHT22;2873;50.966;7.210;2023-01-25T02:54:57;3.00;99.90
5697;DHT22;2873;50.966;7.210;2023-01-25T02:57:22;3.00;99.90
5697;DHT22;2873;50.966;7.210;2023-01-25T02:59:48;3.00;99.90
5697;DHT22;2873;50.966;7.210;2023-01-25T03:02:13;3.10;99.90
5697;DHT22;2873;50.966;7.210;2023-01-25T03:04:39;3.10;99.90
5697;DHT22;2873;50.966;7.210;2023-01-25T03:07:04;3.00;99.90
5697;DHT22;2873;50.966;7.210;2023-01-25T03:09:30;3.10;99.90
5697;DHT22;2873;50.966;7.210;2023-01-25T03:11:56;3.20;99.90
5697;DHT22;2873;50.966;7.210;2023-01-25T03:14:21;3.20;99.90
5697;DHT22;2873;50.966;7.210;2023-01-25T03:16:47;3.10;99.90
5697;DHT22;2873;50.966;7.210;2023-01-25T03:19:13;3.10;99.90
5697;DHT22;2873;50.966;7.210;2023-01-25T03:21:39;3.10;99.90
5697;DHT22;2873;50.966;7.210;2023-01-25T03:24:05;3.10;99.90
5697;DHT22;2873;50.966;7.210;2023-01-25T03:26:31;3.10;99.90
5697;DHT22;2873;50.966;7.210;2023-01-25T03:29:16;3.20;99.90
5697;DHT22;2873;50.966;7.210;2023-01-25T03:31:42;3.20;99.90
5697;DHT22;2873;50.966;7.210;2023-01-25T03:34:07;3.20;99.90
5697;DHT22;2873;50.966;7.210;2023-01-25T03:36:33;3.20;99.90
5697;DHT22;2873;50.966;7.210;2023-01-25T03:38:58;3.10;99.90
5697;DHT22;2873;50.966;7.210;2023-01-25T03:41:24;3.10;99.90
5697;DHT22;2873;50.966;7.210;2023-01-25T03:43:49;3.20;99.90
5697;DHT22;2873;50.966;7.210;2023-01-25T03:46:15;3.20;99.90
5697;DHT22;2873;50.966;7.210;2023-01-25T03:48:40;3.10;99.90
5697;DHT22;2873;50.966;7.210;2023-01-25T03:51:06;3.00;99.90
5697;DHT22;2873;50.966;7.210;2023-01-25T03:53:31;2.90;99.90
5697;DHT22;2873;50.966;7.210;2023-01-25T03:56:04;2.90;99.90
5697;DHT22;2873;50.966;7.210;2023-01-25T03:58:33;2.90;99.90
5697;DHT22;2873;50.966;7.210;2023-01-25T04:01:00;2.70;99.90
5697;DHT22;2873;50.966;7.210;2023-01-25T04:03:27;2.50;99.90
5697;DHT22;2873;50.966;7.210;2023-01-25T04:05:53;2.60;99.90
5697;DHT22;2873;50.966;7.210;2023-01-25T04:08:20;2.70;99.90
5697;DHT22;2873;50.966;7.210;2023-01-25T04:10:52;2.90;99.90
5697;DHT22;2873;50.966;7.210;2023-01-25T04:13:19;2.90;99.90
5697;DHT22;2873;50.966;7.210;2023-01-25T04:15:45;2.70;99.90
5697;DHT22;2873;50.966;7.210;2023-01-25T04:18:11;2.70;99.90
5697;DHT22;2873;50.966;7.210;2023-01-25T04:20:36;2.70;99.90
5697;DHT22;2873;50.966;7.210;2023-01-25T04:23:02;2.60;99.90
5697;DHT22;2873;50.966;7.210;2023-01-25T04:25:27;2.60;99.90
5697;DHT22;2873;50.966;7.210;2023-01-25T04:27:53;2.50;99.90
5697;DHT22;2873;50.966;7.210;2023-01-25T04:30:18;2.40;99.90
5697;DHT22;2873;50.966;7.210;2023-01-25T04:32:44;2.50;99.90
5697;DHT22;2873;50.966;7.210;2023-01-25T04:35:10;2.50;99.90
5697;DHT22;2873;50.966;7.210;2023-01-25T04:37:35;2.50;99.90
5697;DHT22;2873;50.966;7.210;2023-01-25T04:40:01;2.40;99.90
5697;DHT22;2873;50.966;7.210;2023-01-25T04:42:26;2.50;99.90
5697;DHT22;2873;50.966;7.210;2023-01-25T04:44:52;2.50;99.90
5697;DHT22;2873;50.966;7.210;2023-01-25T04:47:18;2.50;99.90
5697;DHT22;2873;50.966;7.210;2023-01-25T04:49:43;2.50;99.90
5697;DHT22;2873;50.966;7.210;2023-01-25T04:52:09;2.60;99.90
5697;DHT22;2873;50.966;7.210;2023-01-25T04:54:34;2.50;99.90
5697;DHT22;2873;50.966;7.210;2023-01-25T04:57:00;2.50;99.90
5697;DHT22;2873;50.966;7.210;2023-01-25T04:59:25;2.60;99.90
5697;DHT22;2873;50.966;7.210;2023-01-25T05:01:51;2.60;99.90
5697;DHT22;2873;50.966;7.210;2023-01-25T05:04:16;2.60;99.90
5697;DHT22;2873;50.966;7.210;2023-01-25T05:06:42;2.40;99.90
5697;DHT22;2873;50.966;7.210;2023-01-25T05:09:08;2.40;99.90
5697;DHT22;2873;50.966;7.210;2023-01-25T05:11:34;2.40;99.90
5697;DHT22;2873;50.966;7.210;2023-01-25T05:13:59;2.50;99.90
5697;DHT22;2873;50.966;7.210;2023-01-25T05:16:25;2.50;99.90
5697;DHT22;2873;50.966;7.210;2023-01-25T05:18:50;2.50;99.90
5697;DHT22;2873;50.966;7.210;2023-01-25T05:21:16;2.40;99.90
5697;DHT22;2873;50.966;7.210;2023-01-25T05:24:00;2.40;99.90
5697;DHT22;2873;50.966;7.210;2023-01-25T05:26:26;2.40;99.90
5697;DHT22;2873;50.966;7.210;2023-01-25T05:29:10;2.50;99.90
5697;DHT22;2873;50.966;7.210;2023-01-25T05:31:36;2.40;99.90
5697;DHT22;2873;50.966;7.210;2023-01-25T05:34:01;2.40;99.90
5697;DHT22;2873;50.966;7.210;2023-01-25T05:36:27;2.40;99.90
5697;DHT22;2873;50.966;7.210;2023-01-25T05:38:52;2.40;99.90
5697;DHT22;2873;50.966;7.210;2023-01-25T05:41:18;2.30;99.90
5697;DHT22;2873;50.966;7.210;2023-01-25T05:43:47;2.30;99.90
5697;DHT22;2873;50.966;7.210;2023-01-25T05:46:13;2.30;99.90
5697;DHT22;2873;50.966;7.210;2023-01-25T05:48:38;2.30;99.90
5697;DHT22;2873;50.966;7.210;2023-01-25T05:51:04;2.30;99.90
5697;DHT22;2873;50.966;7.210;2023-01-25T05:53:30;2.20;99.90
5697;DHT22;2873;50.966;7.210;2023-01-25T05:55:55;2.30;99.90
5697;DHT22;2873;50.966;7.210;2023-01-25T05:58:21;2.30;99.90
5697;DHT22;2873;50.966;7.210;2023-01-25T06:00:46;2.30;99.90
5697;DHT22;2873;50.966;7.210;2023-01-25T06:03:12;2.40;99.90
5697;DHT22;2873;50.966;7.210;2023-01-25T06:05:37;2.30;99.90
5697;DHT22;2873;50.966;7.210;2023-01-25T06:08:03;2.30;99.90
5697;DHT22;2873;50.966;7.210;2023-01-25T06:10:28;2.30;99.90
5697;DHT22;2873;50.966;7.210;2023-01-25T06:12:57;2.30;99.90
5697;DHT22;2873;50.966;7.210;2023-01-25T06:15:23;2.30;99.90
5697;DHT22;2873;50.966;7.210;2023-01-25T06:17:54;2.30;99.90
5697;DHT22;2873;50.966;7.210;2023-01-25T06:20:20;2.30;99.90
5697;DHT22;2873;50.966;7.210;2023-01-25T06:22:49;2.20;99.90
5697;DHT22;2873;50.966;7.210;2023-01-25T06:25:15;2.20;99.90
5697;DHT22;2873;50.966;7.210;2023-01-25T06:27:41;2.20;99.90
5697;DHT22;2873;50.966;7.210;2023-01-25T06:30:07;2.30;99.90
5697;DHT22;2873;50.966;7.210;2023-01-25T06:32:32;2.40;99.90
5697;DHT22;2873;50.966;7.210;2023-01-25T06:34:58;2.30;99.90
5697;DHT22;2873;50.966;7.210;2023-01-25T06:37:23;2.30;99.90
5697;DHT22;2873;50.966;7.210;2023-01-25T06:39:49;2.30;99.90
5697;DHT22;2873;50.966;7.210;2023-01-25T06:42:14;2.20;99.90
5697;DHT22;2873;50.966;7.210;2023-01-25T06:44:40;2.20;99.90
5697;DHT22;2873;50.966;7.210;2023-01-25T06:47:08;2.10;99.90
5697;DHT22;2873;50.966;7.210;2023-01-25T06:49:33;2.20;99.90
5697;DHT22;2873;50.966;7.210;2023-01-25T06:51:59;2.10;99.90
5697;DHT22;2873;50.966;7.210;2023-01-25T06:54:26;2.20;99.90
5697;DHT22;2873;50.966;7.210;2023-01-25T06:56:51;2.20;99.90
5697;DHT22;2873;50.966;7.210;2023-01-25T06:59:17;2.20;99.90
5697;DHT22;2873;50.966;7.210;2023-01-25T07:01:42;2.30;99.90
5697;DHT22;2873;50.966;7.210;2023-01-25T07:04:09;2.40;99.90
5697;DHT22;2873;50.966;7.210;2023-01-25T07:06:39;2.30;99.90
5697;DHT22;2873;50.966;7.210;2023-01-25T07:09:06;2.30;99.90
5697;DHT22;2873;50.966;7.210;2023-01-25T07:11:32;2.40;99.90
5697;DHT22;2873;50.966;7.210;2023-01-25T07:13:58;2.30;99.90
5697;DHT22;2873;50.966;7.210;2023-01-25T07:16:24;2.30;99.90
5697;DHT22;2873;50.966;7.210;2023-01-25T07:18:50;2.20;99.90
5697;DHT22;2873;50.966;7.210;2023-01-25T07:21:18;2.30;99.90
5697;DHT22;2873;50.966;7.210;2023-01-25T07:23:44;2.30;99.90
5697;DHT22;2873;50.966;7.210;2023-01-25T07:26:24;2.20;99.90
5697;DHT22;2873;50.966;7.210;2023-01-25T07:28:50;2.30;99.90
5697;DHT22;2873;50.966;7.210;2023-01-25T07:31:17;2.40;99.90
5697;DHT22;2873;50.966;7.210;2023-01-25T07:33:43;2.30;99.90
5697;DHT22;2873;50.966;7.210;2023-01-25T07:36:11;2.30;99.90
5697;DHT22;2873;50.966;7.210;2023-01-25T07:38:37;2.30;99.90
5697;DHT22;2873;50.966;7.210;2023-01-25T07:41:03;2.30;99.90
5697;DHT22;2873;50.966;7.210;2023-01-25T07:43:28;2.20;99.90
5697;DHT22;2873;50.966;7.210;2023-01-25T07:46:00;2.20;99.90
5697;DHT22;2873;50.966;7.210;2023-01-25T07:48:26;2.30;99.90
5697;DHT22;2873;50.966;7.210;2023-01-25T07:50:52;2.30;99.90
5697;DHT22;2873;50.966;7.210;2023-01-25T07:53:42;2.30;99.90
5697;DHT22;2873;50.966;7.210;2023-01-25T07:56:09;2.30;99.90
5697;DHT22;2873;50.966;7.210;2023-01-25T07:58:35;2.30;99.90
5697;DHT22;2873;50.966;7.210;2023-01-25T08:01:09;2.40;99.90
5697;DHT22;2873;50.966;7.210;2023-01-25T08:03:35;2.40;99.90
5697;DHT22;2873;50.966;7.210;2023-01-25T08:06:01;2.30;99.90
5697;DHT22;2873;50.966;7.210;2023-01-25T08:08:30;2.30;99.90
5697;DHT22;2873;50.966;7.210;2023-01-25T08:11:00;2.40;99.90
5697;DHT22;2873;50.966;7.210;2023-01-25T08:13:25;2.40;99.90
5697;DHT22;2873;50.966;7.210;2023-01-25T08:15:54;2.30;99.90
5697;DHT22;2873;50.966;7.210;2023-01-25T08:18:20;2.30;99.90
5697;DHT22;2873;50.966;7.210;2023-01-25T08:20:46;2.40;99.90
5697;DHT22;2873;50.966;7.210;2023-01-25T08:23:11;2.40;99.90
5697;DHT22;2873;50.966;7.210;2023-01-25T08:25:37;2.40;99.90
5697;DHT22;2873;50.966;7.210;2023-01-25T08:28:03;2.40;99.90
5697;DHT22;2873;50.966;7.210;2023-01-25T08:30:29;2.50;99.90
5697;DHT22;2873;50.966;7.210;2023-01-25T08:32:55;2.60;99.90
5697;DHT22;2873;50.966;7.210;2023-01-25T08:35:20;2.60;99.90
5697;DHT22;2873;50.966;7.210;2023-01-25T08:37:46;2.60;99.90
5697;DHT22;2873;50.966;7.210;2023-01-25T08:40:11;2.70;99.90
5697;DHT22;2873;50.966;7.210;2023-01-25T08:42:38;2.70;99.90
5697;DHT22;2873;50.966;7.210;2023-01-25T08:45:04;2.60;99.90
5697;DHT22;2873;50.966;7.210;2023-01-25T08:47:30;2.60;99.90
5697;DHT22;2873;50.966;7.210;2023-01-25T08:49:55;2.70;99.90
5697;DHT22;2873;50.966;7.210;2023-01-25T08:52:21;2.70;99.90
5697;DHT22;2873;50.966;7.210;2023-01-25T08:54:47;2.70;99.90
5697;DHT22;2873;50.966;7.210;2023-01-25T08:57:12;2.80;99.90
5697;DHT22;2873;50.966;7.210;2023-01-25T08:59:38;2.70;99.90
5697;DHT22;2873;50.966;7.210;2023-01-25T09:02:04;2.80;99.90
5697;DHT22;2873;50.966;7.210;2023-01-25T09:04:29;2.70;99.90
5697;DHT22;2873;50.966;7.210;2023-01-25T09:06:55;2.80;99.90
5697;DHT22;2873;50.966;7.210;2023-01-25T09:09:21;2.70;99.90
5697;DHT22;2873;50.966;7.210;2023-01-25T09:11:49;2.60;99.90
5697;DHT22;2873;50.966;7.210;2023-01-25T09:14:14;2.40;99.90
5697;DHT22;2873;50.966;7.210;2023-01-25T09:16:40;2.40;99.90
5697;DHT22;2873;50.966;7.210;2023-01-25T09:19:05;2.50;99.90
5697;DHT22;2873;50.966;7.210;2023-01-25T09:21:32;2.50;99.90
5697;DHT22;2873;50.966;7.210;2023-01-25T09:23:58;2.40;99.90
5697;DHT22;2873;50.966;7.210;2023-01-25T09:26:24;2.30;99.90
5697;DHT22;2873;50.966;7.210;2023-01-25T09:28:51;2.40;99.90
5697;DHT22;2873;50.966;7.210;2023-01-25T09:31:17;2.30;99.90
5697;DHT22;2873;50.966;7.210;2023-01-25T09:33:43;2.30;99.90
5697;DHT22;2873;50.966;7.210;2023-01-25T09:36:09;2.50;99.90
5697;DHT22;2873;50.966;7.210;2023-01-25T09:38:35;2.40;99.90
5697;DHT22;2873;50.966;7.210;2023-01-25T09:46:39;2.50;99.90
5697;DHT22;2873;50.966;7.210;2023-01-25T09:54:46;2.70;99.90
5697;DHT22;2873;50.966;7.210;2023-01-25T09:57:18;2.40;99.90
5697;DHT22;2873;50.966;7.210;2023-01-25T09:59:48;2.60;99.90
5697;DHT22;2873;50.966;7.210;2023-01-25T10:04:56;2.40;99.90
5697;DHT22;2873;50.966;7.210;2023-01-25T10:08:15;2.40;99.90
5697;DHT22;2873;50.966;7.210;2023-01-25T10:10:25;2.50;99.90
5697;DHT22;2873;50.966;7.210;2023-01-25T10:12:54;2.20;99.90
5697;DHT22;2873;50.966;7.210;2023-01-25T10:15:22;2.20;99.90
5697;DHT22;2873;50.966;7.210;2023-01-25T10:21:30;2.30;99.90
5697;DHT22;2873;50.966;7.210;2023-01-25T10:26:25;2.30;99.90
5697;DHT22;2873;50.966;7.210;2023-01-25T10:29:38;2.40;99.90
5697;DHT22;2873;50.966;7.210;2023-01-25T10:31:50;2.10;99.90
5697;DHT22;2873;50.966;7.210;2023-01-25T10:34:27;2.30;99.90
5697;DHT22;2873;50.966;7.210;2023-01-25T10:36:56;2.40;99.90
5697;DHT22;2873;50.966;7.210;2023-01-25T10:39:22;2.40;99.90
5697;DHT22;2873;50.966;7.210;2023-01-25T10:41:53;2.50;99.90
5697;DHT22;2873;50.966;7.210;2023-01-25T10:44:21;2.40;99.90
5697;DHT22;2873;50.966;7.210;2023-01-25T10:47:06;2.50;99.90
5697;DHT22;2873;50.966;7.210;2023-01-25T10:49:46;2.60;99.90
5697;DHT22;2873;50.966;7.210;2023-01-25T10:52:24;2.60;99.90
5697;DHT22;2873;50.966;7.210;2023-01-25T10:57:38;2.60;99.90
5697;DHT22;2873;50.966;7.210;2023-01-25T11:00:25;2.70;99.90
5697;DHT22;2873;50.966;7.210;2023-01-25T11:02:52;2.70;99.90
5697;DHT22;2873;50.966;7.210;2023-01-25T11:07:50;2.50;99.90
5697;DHT22;2873;50.966;7.210;2023-01-25T11:10:36;2.50;99.90
5697;DHT22;2873;50.966;7.210;2023-01-25T11:18:19;2.40;99.90
5697;DHT22;2873;50.966;7.210;2023-01-25T11:20:45;2.30;99.90
5697;DHT22;2873;50.966;7.210;2023-01-25T11:23:24;2.30;99.90
5697;DHT22;2873;50.966;7.210;2023-01-25T11:25:51;2.30;99.90
5697;DHT22;2873;50.966;7.210;2023-01-25T11:30:43;2.40;99.90
5697;DHT22;2873;50.966;7.210;2023-01-25T11:33:13;2.30;99.90
5697;DHT22;2873;50.966;7.210;2023-01-25T11:36:16;2.30;99.90
5697;DHT22;2873;50.966;7.210;2023-01-25T11:41:35;2.40;99.90
5697;DHT22;2873;50.966;7.210;2023-01-25T11:52:59;2.70;99.90
5697;DHT22;2873;50.966;7.210;2023-01-25T11:55:31;2.70;99.90
5697;DHT22;2873;50.966;7.210;2023-01-25T12:01:02;2.70;99.90
5697;DHT22;2873;50.966;7.210;2023-01-25T12:23:38;2.60;99.90
5697;DHT22;2873;50.966;7.210;2023-01-25T12:28:47;2.40;99.90
5697;DHT22;2873;50.966;7.210;2023-01-25T12:34:03;2.50;99.90
5697;DHT22;2873;50.966;7.210;2023-01-25T12:36:42;2.50;99.90
5697;DHT22;2873;50.966;7.210;2023-01-25T12:41:54;2.50;99.90
5697;DHT22;2873;50.966;7.210;2023-01-25T12:44:35;2.50;99.90
5697;DHT22;2873;50.966;7.210;2023-01-25T12:47:31;2.40;99.90
5697;DHT22;2873;50.966;7.210;2023-01-25T12:52:52;2.40;99.90
5697;DHT22;2873;50.966;7.210;2023-01-25T12:55:19;2.30;99.90
5697;DHT22;2873;50.966;7.210;2023-01-25T13:00:36;2.40;99.90
5697;DHT22;2873;50.966;7.210;2023-01-25T13:11:22;2.20;99.90
5697;DHT22;2873;50.966;7.210;2023-01-25T13:13:50;2.20;99.90
5697;DHT22;2873;50.966;7.210;2023-01-25T13:18:53;2.20;99.90
5697;DHT22;2873;50.966;7.210;2023-01-25T13:21:48;2.20;99.90
5697;DHT22;2873;50.966;7.210;2023-01-25T13:24:18;2.20;99.90
5697;DHT22;2873;50.966;7.210;2023-01-25T13:32:02;2.20;99.90
5697;DHT22;2873;50.966;7.210;2023-01-25T13:37:19;2.30;99.90
5697;DHT22;2873;50.966;7.210;2023-01-25T13:39:47;2.30;99.90
5697;DHT22;2873;50.966;7.210;2023-01-25T13:42:28;2.30;99.90
5697;DHT22;2873;50.966;7.210;2023-01-25T13:45:03;2.20;99.90
5697;DHT22;2873;50.966;7.210;2023-01-25T13:47:37;2.20;99.90
5697;DHT22;2873;50.966;7.210;2023-01-25T13:53:04;2.30;99.90
5697;DHT22;2873;50.966;7.210;2023-01-25T13:55:44;2.20;99.90
5697;DHT22;2873;50.966;7.210;2023-01-25T13:58:29;2.20;99.90
5697;DHT22;2873;50.966;7.210;2023-01-25T14:01:11;2.10;99.90
5697;DHT22;2873;50.966;7.210;2023-01-25T14:03:57;2.20;99.90
5697;DHT22;2873;50.966;7.210;2023-01-25T14:06:31;2.10;99.90
5697;DHT22;2873;50.966;7.210;2023-01-25T14:09:01;2.10;99.90
5697;DHT22;2873;50.966;7.210;2023-01-25T14:11:29;2.10;99.90
5697;DHT22;2873;50.966;7.210;2023-01-25T14:14:02;2.10;99.90
5697;DHT22;2873;50.966;7.210;2023-01-25T14:16:30;2.10;99.90
5697;DHT22;2873;50.966;7.210;2023-01-25T14:19:18;2.00;99.90
5697;DHT22;2873;50.966;7.210;2023-01-25T14:21:43;2.00;99.90
5697;DHT22;2873;50.966;7.210;2023-01-25T14:24:09;2.10;99.90
5697;DHT22;2873;50.966;7.210;2023-01-25T14:26:37;2.10;99.90
5697;DHT22;2873;50.966;7.210;2023-01-25T14:29:18;2.10;99.90
5697;DHT22;2873;50.966;7.210;2023-01-25T14:31:47;2.10;99.90
5697;DHT22;2873;50.966;7.210;2023-01-25T14:34:20;2.20;99.90
5697;DHT22;2873;50.966;7.210;2023-01-25T14:36:46;2.20;99.90
5697;DHT22;2873;50.966;7.210;2023-01-25T14:39:28;2.10;99.90
5697;DHT22;2873;50.966;7.210;2023-01-25T14:41:54;2.20;99.90
5697;DHT22;2873;50.966;7.210;2023-01-25T14:44:20;2.30;99.90
5697;DHT22;2873;50.966;7.210;2023-01-25T14:46:46;2.40;99.90
5697;DHT22;2873;50.966;7.210;2023-01-25T14:49:17;2.40;99.90
5697;DHT22;2873;50.966;7.210;2023-01-25T14:54:30;2.40;99.90
5697;DHT22;2873;50.966;7.210;2023-01-25T14:56:59;2.30;99.90
5697;DHT22;2873;50.966;7.210;2023-01-25T14:59:38;2.40;99.90
5697;DHT22;2873;50.966;7.210;2023-01-25T15:07:53;2.30;99.90
5697;DHT22;2873;50.966;7.210;2023-01-25T15:10:31;2.30;99.90
5697;DHT22;2873;50.966;7.210;2023-01-25T15:13:23;2.10;99.90
5697;DHT22;2873;50.966;7.210;2023-01-25T15:15:56;2.10;99.90
5697;DHT22;2873;50.966;7.210;2023-01-25T15:21:14;2.10;99.90
5697;DHT22;2873;50.966;7.210;2023-01-25T15:23:41;2.10;99.90
5697;DHT22;2873;50.966;7.210;2023-01-25T15:28:39;2.00;99.90
5697;DHT22;2873;50.966;7.210;2023-01-25T15:31:04;2.10;99.90
5697;DHT22;2873;50.966;7.210;2023-01-25T15:33:30;2.20;99.90
5697;DHT22;2873;50.966;7.210;2023-01-25T15:35:57;2.30;99.90
5697;DHT22;2873;50.966;7.210;2023-01-25T15:38:23;2.20;99.90
5697;DHT22;2873;50.966;7.210;2023-01-25T15:40:50;2.30;99.90
5697;DHT22;2873;50.966;7.210;2023-01-25T15:43:17;2.40;99.90
5697;DHT22;2873;50.966;7.210;2023-01-25T15:45:44;2.40;99.90
5697;DHT22;2873;50.966;7.210;2023-01-25T15:48:18;2.30;99.90
5697;DHT22;2873;50.966;7.210;2023-01-25T15:50:44;2.20;99.90
5697;DHT22;2873;50.966;7.210;2023-01-25T15:53:14;2.30;99.90
5697;DHT22;2873;50.966;7.210;2023-01-25T15:55:41;2.30;99.90
5697;DHT22;2873;50.966;7.210;2023-01-25T15:58:13;2.30;99.90
5697;DHT22;2873;50.966;7.210;2023-01-25T16:00:40;2.30;99.90
5697;DHT22;2873;50.966;7.210;2023-01-25T16:03:06;2.40;99.90
5697;DHT22;2873;50.966;7.210;2023-01-25T16:05:32;2.20;99.90
5697;DHT22;2873;50.966;7.210;2023-01-25T16:07:57;2.20;99.90
5697;DHT22;2873;50.966;7.210;2023-01-25T16:10:23;2.10;99.90
5697;DHT22;2873;50.966;7.210;2023-01-25T16:12:49;2.10;99.90
5697;DHT22;2873;50.966;7.210;2023-01-25T16:15:16;2.20;99.90
5697;DHT22;2873;50.966;7.210;2023-01-25T16:17:42;2.20;99.90
5697;DHT22;2873;50.966;7.210;2023-01-25T16:20:15;2.20;99.90
5697;DHT22;2873;50.966;7.210;2023-01-25T16:22:42;2.20;99.90
5697;DHT22;2873;50.966;7.210;2023-01-25T16:25:08;2.10;99.90
5697;DHT22;2873;50.966;7.210;2023-01-25T16:27:33;2.10;99.90
5697;DHT22;2873;50.966;7.210;2023-01-25T16:30:02;2.20;99.90
5697;DHT22;2873;50.966;7.210;2023-01-25T16:32:28;2.20;99.90
5697;DHT22;2873;50.966;7.210;2023-01-25T16:34:54;2.10;99.90
5697;DHT22;2873;50.966;7.210;2023-01-25T16:37:19;2.20;99.90
5697;DHT22;2873;50.966;7.210;2023-01-25T16:39:45;2.20;99.90
5697;DHT22;2873;50.966;7.210;2023-01-25T16:42:11;2.30;99.90
5697;DHT22;2873;50.966;7.210;2023-01-25T16:44:37;2.40;99.90
5697;DHT22;2873;50.966;7.210;2023-01-25T16:47:04;2.40;99.90
5697;DHT22;2873;50.966;7.210;2023-01-25T16:49:30;2.40;99.90
5697;DHT22;2873;50.966;7.210;2023-01-25T16:51:57;2.40;99.90
5697;DHT22;2873;50.966;7.210;2023-01-25T16:54:23;2.50;99.90
5697;DHT22;2873;50.966;7.210;2023-01-25T16:56:51;2.20;99.90
5697;DHT22;2873;50.966;7.210;2023-01-25T16:59:17;2.30;99.90
5697;DHT22;2873;50.966;7.210;2023-01-25T17:01:44;2.30;99.90
5697;DHT22;2873;50.966;7.210;2023-01-25T17:04:10;2.30;99.90
5697;DHT22;2873;50.966;7.210;2023-01-25T17:06:39;2.30;99.90
5697;DHT22;2873;50.966;7.210;2023-01-25T17:09:09;2.20;99.90
5697;DHT22;2873;50.966;7.210;2023-01-25T17:11:36;2.20;99.90
5697;DHT22;2873;50.966;7.210;2023-01-25T17:14:03;2.20;99.90
5697;DHT22;2873;50.966;7.210;2023-01-25T17:16:30;2.30;99.90
5697;DHT22;2873;50.966;7.210;2023-01-25T17:19:03;2.20;99.90
5697;DHT22;2873;50.966;7.210;2023-01-25T17:21:31;2.10;99.90
5697;DHT22;2873;50.966;7.210;2023-01-25T17:23:57;2.10;99.90
5697;DHT22;2873;50.966;7.210;2023-01-25T17:26:23;2.20;99.90
5697;DHT22;2873;50.966;7.210;2023-01-25T17:28:49;2.30;99.90
5697;DHT22;2873;50.966;7.210;2023-01-25T17:31:26;2.20;99.90
5697;DHT22;2873;50.966;7.210;2023-01-25T17:33:53;2.30;99.90
5697;DHT22;2873;50.966;7.210;2023-01-25T17:36:19;2.40;99.90
5697;DHT22;2873;50.966;7.210;2023-01-25T17:38:44;2.40;99.90
5697;DHT22;2873;50.966;7.210;2023-01-25T17:41:12;2.40;99.90
5697;DHT22;2873;50.966;7.210;2023-01-25T17:43:38;2.40;99.90
5697;DHT22;2873;50.966;7.210;2023-01-25T17:48:35;2.40;99.90
5697;DHT22;2873;50.966;7.210;2023-01-25T17:51:02;2.30;99.90
5697;DHT22;2873;50.966;7.210;2023-01-25T17:53:29;2.30;99.90
5697;DHT22;2873;50.966;7.210;2023-01-25T17:55:55;2.30;99.90
5697;DHT22;2873;50.966;7.210;2023-01-25T17:58:25;2.30;99.90
5697;DHT22;2873;50.966;7.210;2023-01-25T18:00:50;2.30;99.90
5697;DHT22;2873;50.966;7.210;2023-01-25T18:03:16;2.30;99.90
5697;DHT22;2873;50.966;7.210;2023-01-25T18:05:41;2.30;99.90
5697;DHT22;2873;50.966;7.210;2023-01-25T18:08:09;2.30;99.90
5697;DHT22;2873;50.966;7.210;2023-01-25T18:10:34;2.20;99.90
5697;DHT22;2873;50.966;7.210;2023-01-25T18:13:00;2.10;99.90
5697;DHT22;2873;50.966;7.210;2023-01-25T18:15:25;2.10;99.90
5697;DHT22;2873;50.966;7.210;2023-01-25T18:17:51;2.10;99.90
5697;DHT22;2873;50.966;7.210;2023-01-25T18:20:17;2.10;99.90
5697;DHT22;2873;50.966;7.210;2023-01-25T18:22:43;2.20;99.90
5697;DHT22;2873;50.966;7.210;2023-01-25T18:25:31;2.10;99.90
5697;DHT22;2873;50.966;7.210;2023-01-25T18:27:56;2.10;99.90
5697;DHT22;2873;50.966;7.210;2023-01-25T18:32:54;2.20;99.90
5697;DHT22;2873;50.966;7.210;2023-01-25T18:35:20;2.20;99.90